ADDS METAR Data INFO
IDs: Format: Raw Decoded Include TAF

Data at: 2148 UTC 15 Dec 2017

PANN 152053Z AUTO 08013G22KT 10SM OVC006 M03/M04 A2946 RMK AO2 SLP988 T10331044 58023 TSNO
PANN 151953Z AUTO 08015G20KT 10SM OVC007 M03/M05 A2950 RMK AO2 SLP000 T10331050 TSNO
PANN 151853Z AUTO 08013G17KT 10SM OVC007 M04/M06 A2952 RMK AO2 SLP005 T10441056 TSNO
PANN 151839Z AUTO 08010KT 10SM BKN007 OVC080 M04/M06 A2952 RMK AO2 T10441061 TSNO
PANN 151810Z AUTO 07011KT 10SM SCT006 BKN080 M05/M06 A2953 RMK AO2 T10501061 TSNO
PANN 151753Z AUTO 07009KT 10SM BKN005 M05/M06 A2953 RMK AO2 SLP011 T10501056 11044 21061 58016 TSNO
PANN 151653Z AUTO 07009KT 10SM OVC005 M06/M06 A2956 RMK AO2 SLP021 T10561061 TSNO
PANN 151643Z AUTO 08010KT 10SM OVC004 M06/M06 A2956 RMK AO2 T10561061 TSNO
PANN 151553Z AUTO 07007KT 10SM OVC006 M06/M07 A2957 RMK AO2 SLP025 T10561072 TSNO
PANN 151524Z AUTO 08007KT 10SM BKN007 M06/M07 A2958 RMK AO2 CIG 006V009 T10611072 TSNO
PANN 151515Z AUTO 09009KT 10SM SCT009 M06/M08 A2958 RMK AO2 T10611078 TSNO
PANN 151453Z AUTO 08007KT 10SM SCT028 M06/M07 A2958 RMK AO2 SLP027 T10611072 58000 TSNO
PANN 151353Z AUTO 08006KT 10SM OVC029 M05/M06 A2958 RMK AO2 SLP029 T10501061 TSNO
PANN 151253Z AUTO 00000KT 10SM OVC031 M05/M07 A2958 RMK AO2 SLPNO T10501067 TSNO
PANN 151153Z AUTO 00000KT 10SM OVC032 M05/M06 A2958 RMK AO2 SLPNO 60001 7//// T10501061 11044 21056 52012 TSNO
PANN 151053Z AUTO 00000KT 10SM OVC035 M04/M06 A2957 RMK AO2 SLPNO T10441061 TSNO
PANN 150953Z AUTO 32004KT 10SM FEW022 OVC039 M05/M07 A2956 RMK AO2 SNE0856 SLP021 P0000 T10501067 TSNO
PANN 150853Z AUTO 29003KT 9SM -SN OVC045 M06/M07 A2955 RMK AO2 SLP017 P0001 60001 T10561067 400111067 53010 TSNO
PANN 150822Z AUTO 28004KT 4SM -SN BR OVC049 M06/M07 A2954 RMK AO2 P0001 T10561067 TSNO
PANN 150753Z AUTO 29003KT 2 1/2SM -SN BR OVC047 M05/M07 A2953 RMK AO2 SLP010 P0000 T10501067 TSNO
PANN 150653Z AUTO 28004KT 4SM -SN BR OVC055 M06/M07 A2952 RMK AO2 SNB33 SLP007 P0000 T10561067 TSNO
PANN 150553Z AUTO 28003KT 10SM OVC060 M06/M08 A2952 RMK AO2 SLP006 T10561078 51016 TSNO
PANN 150453Z AUTO 29007KT 10SM OVC055 M06/M08 A2951 RMK AO2 SLP003 T10561083 TSNO
PANN 150353Z AUTO VRB03KT 10SM FEW060 OVC080 M05/M08 A2950 RMK AO2 SLP999 T10501078 TSNO
PANN 150253Z AUTO 29007KT 10SM SCT050 OVC100 M03/M07 A2947 RMK AO2 SLP990 T10331072 58008 TSNO
PANN 150153Z AUTO 29011KT 10SM OVC060 M06/M08 A2947 RMK AO2 SLP991 T10611083 TSNO
PANN 150053Z AUTO 25004KT 10SM OVC080 A2950 RMK AO2 SLPNO TSNO $
PANN 142353Z AUTO 32008KT 10SM OVC080 A2949 RMK AO2 SLPNO 6//// 56022 TSNO $
PANN 142253Z AUTO 29004KT 10SM FEW120 A2949 RMK AO2 SLPNO TSNO $
PANN 142153Z AUTO 10SM CLR M07/M08 A2952 RMK AO2 SLP005 T10671083 TSNO $
PANN 142053Z AUTO 08004KT CLR M06/M07 A2956 RMK AO2 SLP020 T10611072 55008 PWINO FZRANO TSNO $
PANN 141953Z AUTO 31003KT 10SM CLR M05/M07 A2955 RMK AO2 SLP014 T10501067 TSNO
PANN 141853Z AUTO 30003KT 10SM CLR M04/M07 A2957 RMK AO2 SLP022 T10391067 TSNO
PANN 141753Z AUTO 28003KT 10SM OVC080 M04/M06 A2959 RMK AO2 SLP028 T10391056 11028 21067 58008 TSNO
PANN 141653Z AUTO 00000KT 10SM SCT065 OVC080 M04/M06 A2960 RMK AO2 SLP033 T10391061 TSNO
PANN 141553Z AUTO 00000KT 10SM OVC070 M03/M06 A2961 RMK AO2 SLP036 T10331056 TSNO
PANN 141453Z AUTO 00000KT 10SM OVC070 M03/M06 A2961 RMK AO2 SLP037 T10281061 50001 TSNO
PANN 141353Z AUTO 00000KT 10SM OVC060 M03/M06 A2962 RMK AO2 SLP038 T10331056 TSNO
PANN 141253Z AUTO 00000KT 10SM CLR M05/M07 A2962 RMK AO2 SLP039 T10501072 TSNO
PANN 141153Z AUTO 00000KT 10SM CLR M04/M07 A2961 RMK AO2 SLP036 T10391067 10022 21039 53014 TSNO
PANN 141053Z AUTO 15005KT 10SM CLR M02/M06 A2959 RMK AO2 SLP030 T10171061 TSNO
PANN 140953Z AUTO 09009KT 10SM CLR 00/M05 A2958 RMK AO2 SLP024 T00001050 TSNO